Time;durP1;ratioP1;P1;durP2;ratioP2;P2;SDS_P1;SDS_P2;PMS_P1;PMS_P2;Temp;Humidity;BMP_temperature;BMP_pressure;BME280_temperature;BME280_humidity;BME280_pressure;Samples;Min_cycle;Max_cycle;Signal;HPM_P1;HPM_P2
2022/04/12 00:00:19;;;;;;;;;2.67;2.00;;;;;-147.47;100.00;64613.53;5087164;28;28841;-79
2022/04/12 00:02:45;;;;;;;;;5.33;3.00;;;;;-147.47;100.00;64613.53;5092794;28;28892;-80
2022/04/12 00:05:12;;;;;;;;;4.00;2.00;;;;;-147.47;100.00;64613.53;5078988;28;28487;-80
2022/04/12 00:07:39;;;;;;;;;3.00;2.00;;;;;-147.47;100.00;64613.53;5070850;28;28480;-81
2022/04/12 00:10:06;;;;;;;;;3.00;3.00;;;;;-147.47;100.00;64613.53;5091727;28;28606;-80
2022/04/12 00:12:31;;;;;;;;;5.00;3.00;;;;;-147.47;100.00;64613.53;5072912;28;28415;-80
2022/04/12 00:14:57;;;;;;;;;3.00;3.00;;;;;-147.47;100.00;64613.53;5093794;28;28389;-83
2022/04/12 00:20:07;;;;;;;;;3.00;3.00;;;;;-147.47;100.00;64613.53;5090098;28;28932;-81
2022/04/12 00:22:32;;;;;;;;;3.00;3.00;;;;;-147.47;100.00;64613.53;5091099;28;28503;-83
2022/04/12 00:25:00;;;;;;;;;3.00;3.00;;;;;-147.47;100.00;64613.53;5091330;28;28772;-80
2022/04/12 00:27:26;;;;;;;;;2.67;2.67;;;;;-147.47;100.00;64613.53;5090375;28;28727;-80
2022/04/12 00:29:52;;;;;;;;;5.00;4.00;;;;;-147.47;100.00;64613.53;5072646;28;30185;-80
2022/04/12 00:32:17;;;;;;;;;3.33;3.00;;;;;-147.47;100.00;64613.53;5090344;28;28599;-83
2022/04/12 00:34:42;;;;;;;;;3.33;3.33;;;;;-147.47;100.00;64613.53;5063601;28;28521;-81
2022/04/12 00:37:08;;;;;;;;;3.00;3.00;;;;;-147.47;100.00;64613.53;5072594;28;28829;-82
2022/04/12 00:39:34;;;;;;;;;4.33;4.33;;;;;-147.47;100.00;64613.53;5062652;28;29212;-81
2022/04/12 00:42:01;;;;;;;;;2.00;2.00;;;;;-147.47;100.00;64613.53;5089853;28;28820;-81
2022/04/12 00:44:26;;;;;;;;;4.67;4.67;;;;;-147.47;100.00;64613.53;5089629;28;28957;-81
2022/04/12 00:46:52;;;;;;;;;3.00;3.00;;;;;-147.47;100.00;64613.53;5089492;28;28377;-81
2022/04/12 00:49:17;;;;;;;;;5.00;5.00;;;;;-147.47;100.00;64613.53;5084371;28;28791;-82
2022/04/12 00:51:44;;;;;;;;;4.67;4.67;;;;;-147.47;100.00;64613.53;5074519;28;28520;-81
2022/04/12 00:54:10;;;;;;;;;3.67;3.67;;;;;-147.47;100.00;64613.53;5079253;28;28445;-83
2022/04/12 00:56:37;;;;;;;;;6.00;3.33;;;;;-147.47;100.00;64613.53;5082028;28;28926;-80
2022/04/12 00:59:02;;;;;;;;;4.67;4.67;;;;;-147.47;100.00;64613.53;5078677;28;28813;-80
2022/04/12 01:01:28;;;;;;;;;5.00;4.33;;;;;-147.47;100.00;64613.53;5051258;28;28926;-81
2022/04/12 01:03:54;;;;;;;;;3.00;3.00;;;;;-147.47;100.00;64613.53;5087452;28;28642;-81
2022/04/12 01:06:20;;;;;;;;;4.00;3.00;;;;;-147.47;100.00;64613.53;5089249;28;28726;-83
2022/04/12 01:08:45;;;;;;;;;3.33;2.67;;;;;-147.47;100.00;64613.53;5067794;28;29364;-81
2022/04/12 01:11:12;;;;;;;;;3.00;3.00;;;;;-147.47;100.00;64613.53;5060331;28;28517;-82
2022/04/12 01:13:38;;;;;;;;;3.00;3.00;;;;;-147.47;100.00;64613.53;5074605;28;28884;-81
2022/04/12 01:16:09;;;;;;;;;2.00;2.00;;;;;-147.47;100.00;64613.53;5071992;28;29194;-80
2022/04/12 01:18:34;;;;;;;;;8.33;4.33;;;;;-147.47;100.00;64613.53;5085788;28;28699;-81
2022/04/12 01:21:01;;;;;;;;;3.00;3.00;;;;;-147.47;100.00;64613.53;5070570;28;28501;-80
2022/04/12 01:23:58;;;;;;;;;3.67;3.67;;;;;-147.47;100.00;64613.53;5075368;28;28661;-81
2022/04/12 01:26:24;;;;;;;;;4.00;3.00;;;;;-147.47;100.00;64613.53;5074701;28;28860;-82
2022/04/12 01:28:49;;;;;;;;;3.33;3.33;;;;;-147.47;100.00;64613.53;5088978;28;28805;-82
2022/04/12 01:31:15;;;;;;;;;3.33;3.33;;;;;-147.47;100.00;64613.53;5094385;28;28745;-84
2022/04/12 01:33:40;;;;;;;;;4.67;3.00;;;;;-147.47;100.00;64613.53;5086949;28;28250;-83
2022/04/12 01:36:06;;;;;;;;;5.00;3.00;;;;;-147.47;100.00;64613.53;5093783;28;28789;-82
2022/04/12 01:38:31;;;;;;;;;6.67;4.33;;;;;-147.47;100.00;64613.53;5078994;28;28669;-83
2022/04/12 01:40:56;;;;;;;;;3.67;3.67;;;;;-147.47;100.00;64613.53;5073135;28;28863;-82
2022/04/12 01:43:22;;;;;;;;;2.67;2.00;;;;;-147.47;100.00;64613.53;5073761;28;28881;-81
2022/04/12 01:45:47;;;;;;;;;5.67;4.00;;;;;-147.47;100.00;64613.53;5084032;28;29193;-81
2022/04/12 01:48:12;;;;;;;;;2.33;2.33;;;;;-147.47;100.00;64613.53;5080036;28;28531;-82
2022/04/12 01:50:38;;;;;;;;;3.67;3.67;;;;;-147.47;100.00;64613.53;5074753;28;28530;-82
2022/04/12 01:53:04;;;;;;;;;3.33;3.33;;;;;-147.47;100.00;64613.53;5075468;28;28560;-82
2022/04/12 01:55:29;;;;;;;;;4.00;4.00;;;;;-147.47;100.00;64613.53;5088986;28;28774;-81
2022/04/12 01:57:55;;;;;;;;;5.00;4.00;;;;;-147.47;100.00;64613.53;5083647;28;28536;-83
2022/04/12 02:00:20;;;;;;;;;4.00;4.00;;;;;-147.47;100.00;64613.53;5088868;28;29713;-80
2022/04/12 02:02:46;;;;;;;;;3.00;3.00;;;;;-147.47;100.00;64613.53;5075268;28;28802;-81
2022/04/12 02:05:11;;;;;;;;;6.00;4.00;;;;;-147.47;100.00;64613.53;5093037;28;28873;-83
2022/04/12 02:07:37;;;;;;;;;5.00;4.33;;;;;-147.47;100.00;64613.53;5093888;28;30097;-82
2022/04/12 02:10:04;;;;;;;;;3.00;3.00;;;;;-147.47;100.00;64613.53;5092320;28;28477;-83
2022/04/12 02:12:29;;;;;;;;;2.67;2.67;;;;;-147.47;100.00;64613.53;5075790;28;28194;-80
2022/04/12 02:14:56;;;;;;;;;4.00;4.00;;;;;-147.47;100.00;64613.53;5091285;28;28843;-81
2022/04/12 02:17:21;;;;;;;;;5.33;5.00;;;;;-147.47;100.00;64613.53;5072511;28;29759;-82
2022/04/12 02:19:48;;;;;;;;;4.00;4.00;;;;;-147.47;100.00;64613.53;5053972;28;28514;-82
2022/04/12 02:22:13;;;;;;;;;4.00;2.33;;;;;-147.47;100.00;64613.53;5073990;28;28528;-82
2022/04/12 02:24:38;;;;;;;;;2.00;2.00;;;;;-147.47;100.00;64613.53;5069987;28;30262;-81
2022/04/12 02:27:04;;;;;;;;;7.33;4.33;;;;;-147.47;100.00;64613.53;5080248;28;29052;-83
2022/04/12 02:29:29;;;;;;;;;3.33;3.00;;;;;-147.47;100.00;64613.53;5072963;28;28904;-80
2022/04/12 02:31:55;;;;;;;;;4.00;2.33;;;;;-147.47;100.00;64613.53;5069259;28;28556;-81
2022/04/12 02:34:20;;;;;;;;;5.33;4.00;;;;;-147.47;100.00;64613.53;5072207;28;28580;-82
2022/04/12 02:36:47;;;;;;;;;4.67;4.00;;;;;-147.47;100.00;64613.53;5075031;28;29388;-81
2022/04/12 02:39:12;;;;;;;;;4.33;3.33;;;;;-147.47;100.00;64613.53;5073243;28;28559;-80
2022/04/12 02:41:38;;;;;;;;;3.00;3.00;;;;;-147.47;100.00;64613.53;5102636;27;28488;-81
2022/04/12 02:44:04;;;;;;;;;4.67;4.00;;;;;-147.47;100.00;64613.53;5089911;27;29352;-82
2022/04/12 02:46:30;;;;;;;;;6.33;3.00;;;;;-147.47;100.00;64613.53;5088270;28;29506;-81
2022/04/12 02:48:55;;;;;;;;;2.67;2.67;;;;;-147.47;100.00;64613.53;5055947;28;29228;-81
2022/04/12 02:51:20;;;;;;;;;5.33;2.67;;;;;-147.47;100.00;64613.53;5055782;28;28602;-81
2022/04/12 02:53:47;;;;;;;;;3.33;3.33;;;;;-147.47;100.00;64613.53;5073872;28;28911;-83
2022/04/12 02:56:13;;;;;;;;;4.33;4.33;;;;;-147.47;100.00;64613.53;5056227;28;28937;-83
2022/04/12 02:58:38;;;;;;;;;4.00;2.67;;;;;-147.47;100.00;64613.53;5084605;28;28830;-81
2022/04/12 03:01:04;;;;;;;;;6.33;2.33;;;;;-147.47;100.00;64613.53;5092562;28;28624;-80
2022/04/12 03:03:29;;;;;;;;;5.00;5.00;;;;;-147.47;100.00;64613.53;5078432;28;28511;-80
2022/04/12 03:05:55;;;;;;;;;3.67;3.33;;;;;-147.47;100.00;64613.53;5074449;28;28984;-81
2022/04/12 03:08:20;;;;;;;;;6.33;4.00;;;;;-147.47;100.00;64613.53;5093865;28;28863;-81
2022/04/12 03:10:45;;;;;;;;;5.00;3.00;;;;;-147.47;100.00;64613.53;5093920;28;28824;-81
2022/04/12 03:13:11;;;;;;;;;5.00;3.00;;;;;-147.47;100.00;64613.53;5094713;28;28449;-82
2022/04/12 03:15:37;;;;;;;;;3.33;3.33;;;;;-147.47;100.00;64613.53;5092343;28;28591;-82
2022/04/12 03:18:02;;;;;;;;;3.33;1.67;;;;;-147.47;100.00;64613.53;5080175;28;28618;-81
2022/04/12 03:20:28;;;;;;;;;4.67;4.00;;;;;-147.47;100.00;64613.53;5072192;28;28459;-81
2022/04/12 03:22:53;;;;;;;;;2.33;2.33;;;;;-147.47;100.00;64613.53;5080673;28;28642;-81
2022/04/12 03:25:20;;;;;;;;;3.00;3.00;;;;;-147.47;100.00;64613.53;5092596;28;29203;-81
2022/04/12 03:27:45;;;;;;;;;4.00;4.00;;;;;-147.47;100.00;64613.53;5074912;28;27981;-80
2022/04/12 03:30:11;;;;;;;;;2.00;2.00;;;;;-147.47;100.00;64613.53;5092322;28;28546;-81
2022/04/12 03:32:37;;;;;;;;;3.33;3.00;;;;;-147.47;100.00;64613.53;5093044;28;28486;-80
2022/04/12 03:35:03;;;;;;;;;4.00;4.00;;;;;-147.47;100.00;64613.53;5092483;28;29510;-81
2022/04/12 03:37:28;;;;;;;;;3.00;3.00;;;;;-147.47;100.00;64613.53;5085448;28;28962;-80
2022/04/12 03:39:55;;;;;;;;;3.00;3.00;;;;;-147.47;100.00;64613.53;5052866;28;28481;-80
2022/04/12 03:42:21;;;;;;;;;4.00;4.00;;;;;-147.47;100.00;64613.53;5073767;28;28674;-80
2022/04/12 03:44:47;;;;;;;;;3.00;3.00;;;;;-147.47;100.00;64613.53;5073090;28;29696;-80
2022/04/12 03:47:13;;;;;;;;;6.00;6.00;;;;;-147.47;100.00;64613.53;5069538;28;28432;-80
2022/04/12 03:49:38;;;;;;;;;3.00;3.00;;;;;-147.47;100.00;64613.53;5081217;28;28545;-81
2022/04/12 03:52:04;;;;;;;;;2.67;2.00;;;;;-147.47;100.00;64613.53;5071347;28;30329;-80
2022/04/12 03:54:30;;;;;;;;;6.00;4.00;;;;;-147.47;100.00;64613.53;5081005;28;28805;-80
2022/04/12 03:56:55;;;;;;;;;4.67;1.00;;;;;-147.47;100.00;64613.53;5092331;28;28581;-80
2022/04/12 03:59:21;;;;;;;;;4.33;3.00;;;;;-147.47;100.00;64613.53;5051075;28;28958;-80
2022/04/12 04:01:47;;;;;;;;;4.00;4.00;;;;;-147.47;100.00;64613.53;5093610;28;28541;-80
2022/04/12 04:04:13;;;;;;;;;5.33;3.67;;;;;-147.47;100.00;64613.53;5092066;28;29154;-83
2022/04/12 04:06:38;;;;;;;;;4.00;4.00;;;;;-147.47;100.00;64613.53;5091574;28;28904;-82
2022/04/12 04:09:04;;;;;;;;;2.00;2.00;;;;;-147.47;100.00;64613.53;5091573;28;28567;-81
2022/04/12 04:11:29;;;;;;;;;3.00;3.00;;;;;-147.47;100.00;64613.53;5073745;28;28460;-82
2022/04/12 04:13:55;;;;;;;;;2.33;2.33;;;;;-147.47;100.00;64613.53;5075301;28;28566;-79
2022/04/12 04:16:21;;;;;;;;;2.33;2.33;;;;;-147.47;100.00;64613.53;5079388;28;28711;-82
2022/04/12 04:18:46;;;;;;;;;3.00;2.00;;;;;-147.47;100.00;64613.53;5086809;28;28486;-80
2022/04/12 04:21:12;;;;;;;;;4.00;3.00;;;;;-147.47;100.00;64613.53;5091682;28;28803;-80
2022/04/12 04:23:37;;;;;;;;;4.00;2.67;;;;;-147.47;100.00;64613.53;5091077;28;28509;-80
2022/04/12 04:26:04;;;;;;;;;4.00;3.00;;;;;-147.47;100.00;64613.53;5065050;28;28431;-79
2022/04/12 04:28:30;;;;;;;;;3.00;2.33;;;;;-147.47;100.00;64613.53;5071026;28;28470;-81
2022/04/12 04:30:56;;;;;;;;;5.00;3.00;;;;;-147.47;100.00;64613.53;5057079;28;28761;-82
2022/04/12 04:33:21;;;;;;;;;3.67;3.67;;;;;-147.47;100.00;64613.53;5093780;28;29226;-81
2022/04/12 04:35:48;;;;;;;;;5.00;3.00;;;;;-147.47;100.00;64613.53;5092245;28;28481;-81
2022/04/12 04:38:14;;;;;;;;;4.00;4.00;;;;;-147.47;100.00;64613.53;5055363;28;28502;-81
2022/04/12 04:40:40;;;;;;;;;4.67;3.33;;;;;-147.47;100.00;64613.53;5084549;28;28903;-82
2022/04/12 04:43:06;;;;;;;;;4.33;3.00;;;;;-147.47;100.00;64613.53;5071269;28;29529;-82
2022/04/12 04:45:32;;;;;;;;;2.67;2.00;;;;;-147.47;100.00;64613.53;5089372;28;29100;-82
2022/04/12 04:47:59;;;;;;;;;2.00;2.00;;;;;-147.47;100.00;64613.53;5092599;28;28456;-84
2022/04/12 04:50:26;;;;;;;;;3.00;3.00;;;;;-147.47;100.00;64613.53;5081225;28;28924;-82
2022/04/12 04:52:52;;;;;;;;;3.33;1.67;;;;;-147.47;100.00;64613.53;5078472;28;28633;-80
2022/04/12 04:55:19;;;;;;;;;1.33;1.33;;;;;-147.47;100.00;64613.53;5089111;28;28899;-82
2022/04/12 04:57:46;;;;;;;;;2.67;2.67;;;;;-147.47;100.00;64613.53;5070217;28;28766;-79
2022/04/12 05:00:17;;;;;;;;;1.00;1.00;;;;;-147.47;100.00;64613.53;5084215;28;28900;-82
2022/04/12 05:02:44;;;;;;;;;4.33;3.33;;;;;-147.47;100.00;64613.53;5091946;28;29606;-86
2022/04/12 05:05:13;;;;;;;;;1.67;1.67;;;;;-147.47;100.00;64613.53;5080847;28;28501;-87
2022/04/12 05:07:40;;;;;;;;;3.00;3.00;;;;;-147.47;100.00;64613.53;5081606;28;28388;-88
2022/04/12 05:10:08;;;;;;;;;2.33;2.33;;;;;-147.47;100.00;64613.53;5080126;28;29222;-87
2022/04/12 05:12:35;;;;;;;;;3.00;3.00;;;;;-147.47;100.00;64613.53;5082598;28;29908;-87
2022/04/12 05:15:11;;;;;;;;;3.00;2.00;;;;;-147.47;100.00;64613.53;5080071;28;28461;-89
2022/04/12 05:17:36;;;;;;;;;3.00;3.00;;;;;-147.47;100.00;64613.53;5070751;28;28570;-80
2022/04/12 05:20:05;;;;;;;;;3.33;2.00;;;;;-147.47;100.00;64613.53;5088330;28;28984;-80
2022/04/12 05:22:30;;;;;;;;;2.33;2.33;;;;;-147.47;100.00;64613.53;5080878;28;29889;-79
2022/04/12 05:24:56;;;;;;;;;3.00;3.00;;;;;-147.47;100.00;64613.53;5088208;28;28755;-79
2022/04/12 05:27:21;;;;;;;;;4.67;3.33;;;;;-147.47;100.00;64613.53;5083793;28;28125;-82
2022/04/12 05:29:47;;;;;;;;;3.00;2.33;;;;;-147.47;100.00;64613.53;5071788;28;29310;-85
2022/04/12 05:32:13;;;;;;;;;2.67;2.67;;;;;-147.47;100.00;64613.53;5078599;28;29485;-83
2022/04/12 05:34:46;;;;;;;;;4.00;4.00;;;;;-147.47;100.00;64613.53;5037331;28;28593;-79
2022/04/12 05:37:11;;;;;;;;;2.67;2.67;;;;;-147.47;100.00;64613.53;5080238;28;28969;-85
2022/04/12 05:39:36;;;;;;;;;5.33;3.67;;;;;-147.47;100.00;64613.53;5066231;28;28595;-80
2022/04/12 05:42:02;;;;;;;;;6.00;2.00;;;;;-147.47;100.00;64613.53;5081165;28;29852;-79
2022/04/12 05:44:34;;;;;;;;;2.00;2.00;;;;;-147.47;100.00;64613.53;5076757;28;28911;-78
2022/04/12 05:47:01;;;;;;;;;3.67;3.00;;;;;-147.47;100.00;64613.53;5083961;28;28481;-80
2022/04/12 05:49:28;;;;;;;;;4.00;3.67;;;;;-147.47;100.00;64613.53;5080303;28;28773;-77
2022/04/12 05:51:54;;;;;;;;;4.00;2.67;;;;;-147.47;100.00;64613.53;5080190;28;28918;-79
2022/04/12 05:54:19;;;;;;;;;2.67;2.67;;;;;-147.47;100.00;64613.53;5084066;28;28575;-80
2022/04/12 05:56:45;;;;;;;;;5.00;2.33;;;;;-147.47;100.00;64613.53;5084692;28;28799;-79
2022/04/12 05:59:10;;;;;;;;;3.00;2.00;;;;;-147.47;100.00;64613.53;5060623;28;28728;-79
2022/04/12 06:01:36;;;;;;;;;4.00;2.33;;;;;-147.47;100.00;64613.53;5055824;28;28411;-79
2022/04/12 06:04:01;;;;;;;;;2.00;2.00;;;;;-147.47;100.00;64613.53;5054664;28;28607;-79
2022/04/12 06:06:27;;;;;;;;;3.00;3.00;;;;;-147.47;100.00;64613.53;5057515;28;28664;-79
2022/04/12 06:08:53;;;;;;;;;3.00;2.67;;;;;-147.47;100.00;64613.53;5058021;28;28561;-79
2022/04/12 06:11:19;;;;;;;;;3.00;3.00;;;;;-147.47;100.00;64613.53;5058905;28;29159;-80
2022/04/12 06:13:44;;;;;;;;;3.00;3.00;;;;;-147.47;100.00;64613.53;5054355;28;28780;-82
2022/04/12 06:16:10;;;;;;;;;2.67;2.67;;;;;-147.47;100.00;64613.53;5054598;28;28805;-80
2022/04/12 06:18:35;;;;;;;;;3.33;3.33;;;;;-147.47;100.00;64613.53;5091977;28;28508;-80
2022/04/12 06:21:01;;;;;;;;;7.00;5.00;;;;;-147.47;100.00;64613.53;5089059;28;28406;-79
2022/04/12 06:23:28;;;;;;;;;4.67;2.00;;;;;-147.47;100.00;64613.53;5054176;28;28558;-80
2022/04/12 06:25:53;;;;;;;;;3.67;3.67;;;;;-147.47;100.00;64613.53;5060663;28;28848;-78
2022/04/12 06:28:18;;;;;;;;;3.00;3.00;;;;;-147.47;100.00;64613.53;5074892;28;28671;-78
2022/04/12 06:30:44;;;;;;;;;2.67;1.00;;;;;-147.47;100.00;64613.53;5074516;28;28437;-80
2022/04/12 06:33:10;;;;;;;;;3.00;3.00;;;;;-147.47;100.00;64613.53;5077142;28;28790;-83
2022/04/12 06:35:35;;;;;;;;;1.67;1.33;;;;;-147.47;100.00;64613.53;5054181;28;29000;-84
2022/04/12 06:38:02;;;;;;;;;4.67;3.00;;;;;-147.47;100.00;64613.53;5090333;28;28537;-84
2022/04/12 06:40:29;;;;;;;;;3.50;3.00;;;;;-147.47;100.00;64613.53;5081833;28;29949;-85
2022/04/12 06:42:55;;;;;;;;;2.25;2.00;;;;;-147.47;100.00;64613.53;5078423;28;28709;-86
2022/04/12 06:45:21;;;;;;;;;2.33;2.33;;;;;-147.47;100.00;64613.53;5078016;28;28773;-84
2022/04/12 06:47:58;;;;;;;;;2.00;2.00;;;;;-147.47;100.00;64613.53;5072663;28;28951;-82
2022/04/12 06:50:25;;;;;;;;;3.00;3.00;;;;;-147.47;100.00;64613.53;5044549;28;28875;-82
2022/04/12 06:52:51;;;;;;;;;5.00;3.00;;;;;-147.47;100.00;64613.53;5067372;28;28507;-80
2022/04/12 06:55:16;;;;;;;;;2.25;2.25;;;;;-147.47;100.00;64613.53;5089351;28;28845;-80
2022/04/12 06:57:43;;;;;;;;;4.00;2.67;;;;;-147.47;100.00;64613.53;5065197;28;28486;-81
2022/04/12 07:00:09;;;;;;;;;3.75;3.50;;;;;-147.47;100.00;64613.53;5061455;28;28509;-79
2022/04/12 07:02:35;;;;;;;;;1.00;1.00;;;;;-147.47;100.00;64613.53;5065991;28;28341;-80
2022/04/12 07:05:02;;;;;;;;;3.00;3.00;;;;;-147.47;100.00;64613.53;5057564;28;28728;-81
2022/04/12 07:07:28;;;;;;;;;4.50;4.50;;;;;-147.47;100.00;64613.53;5063310;28;29182;-80
2022/04/12 07:09:55;;;;;;;;;4.67;3.33;;;;;-147.47;100.00;64613.53;5061255;28;28881;-81
2022/04/12 07:12:20;;;;;;;;;3.00;2.25;;;;;-147.47;100.00;64613.53;5062641;28;28893;-79
2022/04/12 07:14:48;;;;;;;;;3.67;3.33;;;;;-147.47;100.00;64613.53;5071791;28;28584;-80
2022/04/12 07:17:14;;;;;;;;;2.00;2.00;;;;;-147.47;100.00;64613.53;5047785;28;28719;-80
2022/04/12 07:19:40;;;;;;;;;2.00;2.00;;;;;-147.47;100.00;64613.53;5050460;28;28607;-81
2022/04/12 07:22:05;;;;;;;;;2.00;2.00;;;;;-147.47;100.00;64613.53;5048897;28;28555;-79
2022/04/12 07:24:31;;;;;;;;;3.00;3.00;;;;;-147.47;100.00;64613.53;5065695;28;28732;-80
2022/04/12 07:26:57;;;;;;;;;3.00;3.00;;;;;-147.47;100.00;64613.53;5067083;28;28649;-80
2022/04/12 07:29:22;;;;;;;;;3.33;2.33;;;;;-147.47;100.00;64613.53;5066731;28;29980;-79
2022/04/12 07:31:48;;;;;;;;;1.25;1.25;;;;;-147.47;100.00;64613.53;5054404;28;28622;-81
2022/04/12 07:34:14;;;;;;;;;2.00;2.00;;;;;-147.47;100.00;64613.53;5060899;28;28476;-83
2022/04/12 07:36:43;;;;;;;;;3.00;2.00;;;;;-147.47;100.00;64613.53;5051135;28;28668;-81
2022/04/12 07:39:09;;;;;;;;;2.00;2.00;;;;;-147.47;100.00;64613.53;5045090;28;30017;-79
2022/04/12 07:41:35;;;;;;;;;6.00;2.67;;;;;-147.47;100.00;64613.53;5062458;28;28746;-80
2022/04/12 07:44:00;;;;;;;;;2.50;2.50;;;;;-147.47;100.00;64613.53;5063446;28;28477;-80
2022/04/12 07:46:26;;;;;;;;;3.67;3.00;;;;;-147.47;100.00;64613.53;5079328;28;28419;-78
2022/04/12 07:48:51;;;;;;;;;4.50;3.50;;;;;-147.47;100.00;64613.53;5038915;28;28787;-78
2022/04/12 07:51:17;;;;;;;;;3.00;2.25;;;;;-147.47;100.00;64613.53;5059413;28;28967;-81
2022/04/12 07:53:43;;;;;;;;;3.00;3.00;;;;;-147.47;100.00;64613.53;5044824;28;28592;-79
2022/04/12 07:56:08;;;;;;;;;5.00;3.75;;;;;-147.47;100.00;64613.53;5065426;28;27935;-80
2022/04/12 07:58:34;;;;;;;;;4.00;3.00;;;;;-147.47;100.00;64613.53;5066435;28;28959;-80
2022/04/12 08:01:00;;;;;;;;;3.25;3.25;;;;;-147.47;100.00;64613.53;5053749;28;28701;-80
2022/04/12 08:03:28;;;;;;;;;5.50;4.50;;;;;-147.47;100.00;64613.53;5040288;28;29036;-76
2022/04/12 08:05:58;;;;;;;;;3.75;3.75;;;;;-147.47;100.00;64613.53;5069874;28;28558;-79
2022/04/12 08:08:32;;;;;;;;;3.00;3.00;;;;;-147.47;100.00;64613.53;5065442;28;28784;-82
2022/04/12 08:11:04;;;;;;;;;3.50;3.25;;;;;-147.47;100.00;64613.53;5075323;28;28651;-79
2022/04/12 08:13:30;;;;;;;;;2.00;2.00;;;;;-147.47;100.00;64613.53;5049817;28;28505;-75
2022/04/12 08:15:58;;;;;;;;;5.00;3.00;;;;;-147.47;100.00;64613.53;5064862;28;28870;-77
2022/04/12 08:18:25;;;;;;;;;2.25;2.25;;;;;-147.47;100.00;64613.53;5064488;28;28778;-76
2022/04/12 08:20:50;;;;;;;;;2.75;2.75;;;;;-147.47;100.00;64613.53;5078044;28;28603;-80
2022/04/12 08:23:17;;;;;;;;;1.33;1.33;;;;;-147.47;100.00;64613.53;5037302;28;28839;-81
2022/04/12 08:25:43;;;;;;;;;5.00;2.00;;;;;-147.47;100.00;64613.53;5052984;28;29288;-81
2022/04/12 08:28:09;;;;;;;;;3.67;2.67;;;;;-147.47;100.00;64613.53;5062906;28;29650;-81
2022/04/12 08:30:35;;;;;;;;;2.00;2.00;;;;;-147.47;100.00;64613.53;5076668;28;28508;-79
2022/04/12 08:33:01;;;;;;;;;3.00;3.00;;;;;-147.47;100.00;64613.53;5055339;28;28570;-77
2022/04/12 08:35:27;;;;;;;;;2.50;2.00;;;;;-147.47;100.00;64613.53;5056135;28;28628;-75
2022/04/12 08:37:53;;;;;;;;;2.00;2.00;;;;;-147.47;100.00;64613.53;5060162;28;28538;-76
2022/04/12 08:40:19;;;;;;;;;4.67;3.00;;;;;-147.47;100.00;64613.53;5061988;28;28793;-76
2022/04/12 08:42:45;;;;;;;;;1.33;1.33;;;;;-147.47;100.00;64613.53;5061750;28;28557;-75
2022/04/12 08:45:11;;;;;;;;;1.25;1.25;;;;;-147.47;100.00;64613.53;5076648;28;29647;-75
2022/04/12 08:47:36;;;;;;;;;3.33;1.67;;;;;-147.47;100.00;64613.53;5059787;28;28513;-76
2022/04/12 08:50:04;;;;;;;;;2.00;0.67;;;;;-147.47;100.00;64613.53;5060915;28;29547;-75
2022/04/12 08:52:31;;;;;;;;;2.50;2.25;;;;;-147.47;100.00;64613.53;5060481;28;28942;-73
2022/04/12 08:54:56;;;;;;;;;1.50;1.50;;;;;-147.47;100.00;64613.53;5065852;28;28533;-73
2022/04/12 08:57:22;;;;;;;;;4.50;2.00;;;;;-147.47;100.00;64613.53;5060518;28;28905;-75
2022/04/12 08:59:48;;;;;;;;;1.00;1.00;;;;;-147.47;100.00;64613.53;5056521;28;28882;-76
2022/04/12 09:02:13;;;;;;;;;2.40;2.40;;;;;-147.47;100.00;64613.53;5058275;28;29015;-78
2022/04/12 09:04:39;;;;;;;;;1.00;1.00;;;;;-147.47;100.00;64613.53;5060592;28;28717;-76
2022/04/12 09:07:10;;;;;;;;;4.00;1.00;;;;;-147.47;100.00;64613.53;5042524;28;29568;-77
2022/04/12 09:09:38;;;;;;;;;1.60;1.00;;;;;-147.47;100.00;64613.53;5054526;28;30530;-75
2022/04/12 09:12:09;;;;;;;;;1.20;1.00;;;;;-147.47;100.00;64613.53;5050588;28;28579;-74
2022/04/12 09:14:43;;;;;;;;;1.60;0.40;;;;;-147.47;100.00;64613.53;5058359;28;28770;-73
2022/04/12 09:17:35;;;;;;;;;2.00;0.40;;;;;-147.47;100.00;64613.53;5038388;28;28563;-75
2022/04/12 09:20:09;;;;;;;;;2.40;1.40;;;;;-147.47;100.00;64613.53;5056022;28;28924;-75
2022/04/12 09:22:35;;;;;;;;;3.20;0.80;;;;;-147.47;100.00;64613.53;5041923;28;28573;-75
2022/04/12 09:25:03;;;;;;;;;4.00;2.00;;;;;-147.47;100.00;64613.53;5064477;28;28890;-75
2022/04/12 09:27:30;;;;;;;;;0.60;0.60;;;;;-147.47;100.00;64613.53;5047539;28;30190;-74
2022/04/12 09:30:02;;;;;;;;;2.20;1.00;;;;;-147.47;100.00;64613.53;5047549;28;28947;-76
2022/04/12 09:32:29;;;;;;;;;2.00;1.00;;;;;-147.47;100.00;64613.53;5051444;28;28388;-75
2022/04/12 09:34:57;;;;;;;;;1.60;1.00;;;;;-147.47;100.00;64613.53;5058483;28;28643;-75
2022/04/12 09:37:30;;;;;;;;;2.20;1.80;;;;;-147.47;100.00;64613.53;5039733;28;30682;-75
2022/04/12 09:39:59;;;;;;;;;1.00;1.00;;;;;-147.47;100.00;64613.53;5053520;28;28091;-76
2022/04/12 09:42:37;;;;;;;;;3.80;0.60;;;;;-147.47;100.00;64613.53;5044939;28;28587;-75
2022/04/12 09:45:05;;;;;;;;;1.00;1.00;;;;;-147.47;100.00;64613.53;5065902;28;29491;-73
2022/04/12 09:47:32;;;;;;;;;1.00;1.00;;;;;-147.47;100.00;64613.53;5055881;28;29392;-76
2022/04/12 09:49:59;;;;;;;;;2.40;1.20;;;;;-147.47;100.00;64613.53;5063160;28;28932;-75
2022/04/12 09:52:24;;;;;;;;;4.00;1.00;;;;;-147.47;100.00;64613.53;5037458;28;28872;-77
2022/04/12 09:54:51;;;;;;;;;1.50;1.50;;;;;-147.47;100.00;64613.53;5067358;28;29112;-75
2022/04/12 09:57:17;;;;;;;;;1.00;1.00;;;;;-147.47;100.00;64613.53;5062485;28;28823;-75
2022/04/12 09:59:44;;;;;;;;;1.00;1.00;;;;;-147.47;100.00;64613.53;5074505;28;28019;-75
2022/04/12 10:02:11;;;;;;;;;2.20;1.00;;;;;-147.47;100.00;64613.53;5058980;28;28408;-76
2022/04/12 10:04:38;;;;;;;;;2.40;1.80;;;;;-147.47;100.00;64613.53;5038856;28;28491;-76
2022/04/12 10:07:05;;;;;;;;;1.60;1.60;;;;;-147.47;100.00;64613.53;5055659;28;29800;-77
2022/04/12 10:09:34;;;;;;;;;2.00;2.00;;;;;-147.47;100.00;64613.53;5051703;28;28480;-76
2022/04/12 10:12:00;;;;;;;;;1.00;1.00;;;;;-147.47;100.00;64613.53;5069941;28;28910;-76
2022/04/12 10:14:25;;;;;;;;;2.20;1.00;;;;;-147.47;100.00;64613.53;5069111;28;28789;-76
2022/04/12 10:16:52;;;;;;;;;1.25;1.00;;;;;-147.47;100.00;64613.53;5066433;28;28649;-75
2022/04/12 10:19:18;;;;;;;;;5.80;2.40;;;;;-147.47;100.00;64613.53;5054894;28;29002;-76
2022/04/12 10:21:43;;;;;;;;;2.00;1.00;;;;;-147.47;100.00;64613.53;5042749;28;28673;-75
2022/04/12 10:24:12;;;;;;;;;2.25;0.50;;;;;-147.47;100.00;64613.53;5055898;28;28537;-77
2022/04/12 10:26:40;;;;;;;;;1.00;1.00;;;;;-147.47;100.00;64613.53;5037918;28;30349;-75
2022/04/12 10:29:06;;;;;;;;;2.80;1.60;;;;;-147.47;100.00;64613.53;5055819;28;29119;-80
2022/04/12 10:31:32;;;;;;;;;1.80;1.20;;;;;-147.47;100.00;64613.53;5033903;28;29077;-75
2022/04/12 10:34:00;;;;;;;;;2.00;0.40;;;;;-147.47;100.00;64613.53;5061780;28;29150;-75
2022/04/12 10:36:55;;;;;;;;;1.20;1.20;;;;;-147.47;100.00;64613.53;5051495;28;28632;-76
2022/04/12 10:39:42;;;;;;;;;0.80;0.20;;;;;-147.47;100.00;64613.53;5046560;28;28700;-75
2022/04/12 10:42:11;;;;;;;;;1.80;1.00;;;;;-147.47;100.00;64613.53;5049040;28;28848;-77
2022/04/12 10:44:39;;;;;;;;;2.60;1.60;;;;;-147.47;100.00;64613.53;5054326;28;28915;-76
2022/04/12 10:47:05;;;;;;;;;3.80;2.40;;;;;-147.47;100.00;64613.53;5038641;28;31270;-76
2022/04/12 10:49:36;;;;;;;;;1.25;1.00;;;;;-147.47;100.00;64613.53;5052347;28;28500;-78
2022/04/12 10:52:02;;;;;;;;;1.00;1.00;;;;;-147.47;100.00;64613.53;5057486;28;28644;-78
2022/04/12 10:54:33;;;;;;;;;2.00;1.60;;;;;-147.47;100.00;64613.53;5058786;28;28597;-75
2022/04/12 10:57:17;;;;;;;;;1.40;1.40;;;;;-147.47;100.00;64613.53;5052972;28;29067;-76
2022/04/12 10:59:50;;;;;;;;;2.00;1.80;;;;;-147.47;100.00;64613.53;5049238;28;28965;-74
2022/04/12 11:02:17;;;;;;;;;3.20;2.00;;;;;-147.47;100.00;64613.53;5051533;28;28653;-75
2022/04/12 11:04:42;;;;;;;;;4.20;3.00;;;;;-147.47;100.00;64613.53;5059754;28;28454;-76
2022/04/12 11:07:08;;;;;;;;;3.00;3.00;;;;;-147.47;100.00;64613.53;5053131;28;29017;-75
2022/04/12 11:09:33;;;;;;;;;1.25;1.25;;;;;-147.47;100.00;64613.53;5057406;28;28392;-75